sensor_id;sensor_type;location;lat;lon;timestamp;pressure;altitude;pressure_sealevel;temperature;humidity
48718;BME280;34521;33.042;-96.586;2022-07-15T00:02:00;99703.79;;;23.46;30.66
48718;BME280;34521;33.042;-96.586;2022-07-15T00:04:25;99702.49;;;23.23;30.61
48718;BME280;34521;33.042;-96.586;2022-07-15T00:06:50;99695.66;;;23.07;30.71
48718;BME280;34521;33.042;-96.586;2022-07-15T00:09:15;99691.50;;;22.90;30.67
48718;BME280;34521;33.042;-96.586;2022-07-15T00:11:40;99691.68;;;23.48;30.09
48718;BME280;34521;33.042;-96.586;2022-07-15T00:14:05;99696.82;;;22.99;30.23
48718;BME280;34521;33.042;-96.586;2022-07-15T00:16:30;99704.38;;;22.64;30.68
48718;BME280;34521;33.042;-96.586;2022-07-15T00:18:55;99715.04;;;22.87;31.21
48718;BME280;34521;33.042;-96.586;2022-07-15T00:21:20;99718.21;;;24.96;28.96
48718;BME280;34521;33.042;-96.586;2022-07-15T00:23:45;99715.16;;;23.15;31.16
48718;BME280;34521;33.042;-96.586;2022-07-15T00:26:10;99716.40;;;22.01;32.33
48718;BME280;34521;33.042;-96.586;2022-07-15T00:28:35;99715.54;;;22.12;32.30
48718;BME280;34521;33.042;-96.586;2022-07-15T00:31:00;99720.25;;;22.28;31.72
48718;BME280;34521;33.042;-96.586;2022-07-15T00:33:25;99719.40;;;22.59;31.16
48718;BME280;34521;33.042;-96.586;2022-07-15T00:35:50;99721.59;;;23.11;30.39
48718;BME280;34521;33.042;-96.586;2022-07-15T00:38:15;99722.19;;;22.14;31.15
48718;BME280;34521;33.042;-96.586;2022-07-15T00:40:42;99722.19;;;22.58;30.62
48718;BME280;34521;33.042;-96.586;2022-07-15T00:43:05;99720.79;;;22.70;30.94
48718;BME280;34521;33.042;-96.586;2022-07-15T00:45:30;99722.17;;;24.55;28.91
48718;BME280;34521;33.042;-96.586;2022-07-15T00:47:57;99722.69;;;25.41;28.02
48718;BME280;34521;33.042;-96.586;2022-07-15T00:50:22;99728.99;;;21.92;32.29
48718;BME280;34521;33.042;-96.586;2022-07-15T00:52:49;99734.04;;;22.09;32.10
48718;BME280;34521;33.042;-96.586;2022-07-15T00:55:12;99737.65;;;21.82;32.13
48718;BME280;34521;33.042;-96.586;2022-07-15T00:57:38;99738.84;;;21.50;31.86
48718;BME280;34521;33.042;-96.586;2022-07-15T01:00:03;99740.62;;;21.46;31.88
48718;BME280;34521;33.042;-96.586;2022-07-15T01:02:26;99744.67;;;22.31;30.69
48718;BME280;34521;33.042;-96.586;2022-07-15T01:04:52;99747.92;;;21.85;31.40
48718;BME280;34521;33.042;-96.586;2022-07-15T01:07:17;99751.17;;;24.03;29.46
48718;BME280;34521;33.042;-96.586;2022-07-15T01:09:41;99754.35;;;24.95;28.25
48718;BME280;34521;33.042;-96.586;2022-07-15T01:12:06;99753.59;;;21.63;32.53
48718;BME280;34521;33.042;-96.586;2022-07-15T01:14:31;99751.82;;;21.21;32.86
48718;BME280;34521;33.042;-96.586;2022-07-15T01:16:57;99755.38;;;21.42;31.84
48718;BME280;34521;33.042;-96.586;2022-07-15T01:19:22;99759.60;;;21.67;31.77
48718;BME280;34521;33.042;-96.586;2022-07-15T01:21:46;99762.60;;;21.90;31.80
48718;BME280;34521;33.042;-96.586;2022-07-15T01:24:17;99763.42;;;23.65;29.85
48718;BME280;34521;33.042;-96.586;2022-07-15T01:26:37;99762.69;;;24.82;28.56
48718;BME280;34521;33.042;-96.586;2022-07-15T01:29:02;99770.25;;;24.60;28.34
48718;BME280;34521;33.042;-96.586;2022-07-15T01:31:27;99773.25;;;25.47;27.82
48718;BME280;34521;33.042;-96.586;2022-07-15T01:33:52;99775.65;;;22.20;31.78
48718;BME280;34521;33.042;-96.586;2022-07-15T01:36:17;99779.75;;;22.59;31.16
48718;BME280;34521;33.042;-96.586;2022-07-15T01:38:42;99783.85;;;22.24;31.17
48718;BME280;34521;33.042;-96.586;2022-07-15T01:41:07;99783.99;;;22.36;31.16
48718;BME280;34521;33.042;-96.586;2022-07-15T01:43:32;99781.50;;;22.25;31.71
48718;BME280;34521;33.042;-96.586;2022-07-15T01:45:57;99780.27;;;24.62;28.86
48718;BME280;34521;33.042;-96.586;2022-07-15T01:48:22;99785.35;;;24.95;28.27
48718;BME280;34521;33.042;-96.586;2022-07-15T01:50:48;99786.09;;;22.48;30.77
48718;BME280;34521;33.042;-96.586;2022-07-15T01:53:12;99787.61;;;22.25;31.50
48718;BME280;34521;33.042;-96.586;2022-07-15T01:55:37;99788.22;;;21.50;32.04
48718;BME280;34521;33.042;-96.586;2022-07-15T01:58:02;99792.41;;;21.59;31.59
48718;BME280;34521;33.042;-96.586;2022-07-15T02:00:28;99794.19;;;21.65;32.06
48718;BME280;34521;33.042;-96.586;2022-07-15T02:02:53;99791.24;;;23.78;29.46
48718;BME280;34521;33.042;-96.586;2022-07-15T02:05:18;99788.36;;;24.52;28.62
48718;BME280;34521;33.042;-96.586;2022-07-15T02:07:43;99788.73;;;24.96;28.18
48718;BME280;34521;33.042;-96.586;2022-07-15T02:10:08;99786.54;;;21.90;31.83
48718;BME280;34521;33.042;-96.586;2022-07-15T02:12:33;99787.30;;;21.65;31.68
48718;BME280;34521;33.042;-96.586;2022-07-15T02:14:58;99790.07;;;21.42;31.92
48718;BME280;34521;33.042;-96.586;2022-07-15T02:17:23;99791.74;;;21.60;32.42
48718;BME280;34521;33.042;-96.586;2022-07-15T02:19:48;99791.93;;;23.28;30.17
48718;BME280;34521;33.042;-96.586;2022-07-15T02:22:13;99791.85;;;24.78;28.52
48718;BME280;34521;33.042;-96.586;2022-07-15T02:24:39;99797.66;;;24.28;28.58
48718;BME280;34521;33.042;-96.586;2022-07-15T02:27:03;99801.76;;;21.45;32.58
48718;BME280;34521;33.042;-96.586;2022-07-15T02:29:29;99803.44;;;21.34;31.96
48718;BME280;34521;33.042;-96.586;2022-07-15T02:31:53;99809.11;;;21.83;31.44
48718;BME280;34521;33.042;-96.586;2022-07-15T02:34:19;99812.81;;;21.97;31.58
48718;BME280;34521;33.042;-96.586;2022-07-15T02:36:44;99814.59;;;23.70;29.79
48718;BME280;34521;33.042;-96.586;2022-07-15T02:39:08;99819.12;;;24.48;28.40
48718;BME280;34521;33.042;-96.586;2022-07-15T02:41:34;99817.05;;;24.99;27.89
48718;BME280;34521;33.042;-96.586;2022-07-15T02:43:58;99821.90;;;22.47;30.93
48718;BME280;34521;33.042;-96.586;2022-07-15T02:46:24;99826.84;;;21.62;32.03
48718;BME280;34521;33.042;-96.586;2022-07-15T02:48:49;99832.61;;;21.76;31.38
48718;BME280;34521;33.042;-96.586;2022-07-15T02:51:14;99841.31;;;21.05;32.12
48718;BME280;34521;33.042;-96.586;2022-07-15T02:53:39;99840.40;;;23.02;30.34
48718;BME280;34521;33.042;-96.586;2022-07-15T02:56:05;99848.12;;;24.23;28.82
48718;BME280;34521;33.042;-96.586;2022-07-15T02:58:30;99852.23;;;24.68;28.39
48718;BME280;34521;33.042;-96.586;2022-07-15T03:00:54;99858.89;;;24.99;27.86
48718;BME280;34521;33.042;-96.586;2022-07-15T03:03:19;99872.90;;;21.64;32.44
48718;BME280;34521;33.042;-96.586;2022-07-15T03:05:44;99872.26;;;21.70;31.32
48718;BME280;34521;33.042;-96.586;2022-07-15T03:08:09;99875.38;;;21.17;31.81
48718;BME280;34521;33.042;-96.586;2022-07-15T03:10:34;99871.19;;;21.57;31.66
48718;BME280;34521;33.042;-96.586;2022-07-15T03:12:59;99874.24;;;24.12;28.85
48718;BME280;34521;33.042;-96.586;2022-07-15T03:15:24;99878.96;;;24.44;28.24
48718;BME280;34521;33.042;-96.586;2022-07-15T03:17:49;99878.90;;;24.65;28.07
48718;BME280;34521;33.042;-96.586;2022-07-15T03:20:15;99883.26;;;22.22;31.00
48718;BME280;34521;33.042;-96.586;2022-07-15T03:22:40;99889.39;;;21.46;32.25
48718;BME280;34521;33.042;-96.586;2022-07-15T03:25:05;99894.42;;;21.00;32.31
48718;BME280;34521;33.042;-96.586;2022-07-15T03:27:30;99892.48;;;21.13;32.90
48718;BME280;34521;33.042;-96.586;2022-07-15T03:29:55;99885.74;;;23.37;29.95
48718;BME280;34521;33.042;-96.586;2022-07-15T03:32:20;99888.54;;;24.65;28.36
48718;BME280;34521;33.042;-96.586;2022-07-15T03:34:45;99892.85;;;24.44;28.30
48718;BME280;34521;33.042;-96.586;2022-07-15T03:37:10;99894.43;;;24.31;28.51
48718;BME280;34521;33.042;-96.586;2022-07-15T03:39:35;99908.72;;;21.70;32.09
48718;BME280;34521;33.042;-96.586;2022-07-15T03:42:00;99912.15;;;20.79;32.62
48718;BME280;34521;33.042;-96.586;2022-07-15T03:44:25;99910.94;;;20.96;32.17
48718;BME280;34521;33.042;-96.586;2022-07-15T03:46:51;99902.28;;;22.47;31.21
48718;BME280;34521;33.042;-96.586;2022-07-15T03:49:16;99898.68;;;24.25;28.66
48718;BME280;34521;33.042;-96.586;2022-07-15T03:51:40;99903.56;;;24.33;28.32
48718;BME280;34521;33.042;-96.586;2022-07-15T03:54:06;99899.47;;;24.12;28.59
48718;BME280;34521;33.042;-96.586;2022-07-15T03:56:31;99906.78;;;21.00;32.78
48718;BME280;34521;33.042;-96.586;2022-07-15T03:58:56;99909.83;;;20.88;32.78
48718;BME280;34521;33.042;-96.586;2022-07-15T04:01:21;99905.75;;;21.31;31.77
48718;BME280;34521;33.042;-96.586;2022-07-15T04:03:46;99907.88;;;21.55;32.06
48718;BME280;34521;33.042;-96.586;2022-07-15T04:06:11;99903.48;;;23.76;29.15
48718;BME280;34521;33.042;-96.586;2022-07-15T04:08:36;99904.89;;;24.41;28.45
48718;BME280;34521;33.042;-96.586;2022-07-15T04:11:01;99902.24;;;24.37;28.29
48718;BME280;34521;33.042;-96.586;2022-07-15T04:13:27;99903.85;;;24.35;28.35
48718;BME280;34521;33.042;-96.586;2022-07-15T04:15:51;99913.43;;;20.69;33.20
48718;BME280;34521;33.042;-96.586;2022-07-15T04:18:16;99911.94;;;20.93;32.82
48718;BME280;34521;33.042;-96.586;2022-07-15T04:20:41;99906.59;;;20.99;31.91
48718;BME280;34521;33.042;-96.586;2022-07-15T04:23:06;99901.91;;;21.59;32.23
48718;BME280;34521;33.042;-96.586;2022-07-15T04:25:31;99898.40;;;23.48;29.35
48718;BME280;34521;33.042;-96.586;2022-07-15T04:27:56;99901.12;;;24.60;28.15
48718;BME280;34521;33.042;-96.586;2022-07-15T04:30:21;99901.74;;;24.65;27.87
48718;BME280;34521;33.042;-96.586;2022-07-15T04:32:46;99899.26;;;24.77;27.79
48718;BME280;34521;33.042;-96.586;2022-07-15T04:35:12;99908.40;;;21.28;31.77
48718;BME280;34521;33.042;-96.586;2022-07-15T04:37:37;99910.10;;;21.12;32.42
48718;BME280;34521;33.042;-96.586;2022-07-15T04:40:02;99907.68;;;21.22;31.61
48718;BME280;34521;33.042;-96.586;2022-07-15T04:42:27;99906.82;;;21.45;32.45
48718;BME280;34521;33.042;-96.586;2022-07-15T04:44:52;99902.35;;;23.35;29.69
48718;BME280;34521;33.042;-96.586;2022-07-15T04:47:17;99902.49;;;24.04;28.69
48718;BME280;34521;33.042;-96.586;2022-07-15T04:49:42;99903.22;;;24.53;28.22
48718;BME280;34521;33.042;-96.586;2022-07-15T04:52:07;99904.54;;;24.50;27.81
48718;BME280;34521;33.042;-96.586;2022-07-15T04:54:32;99910.17;;;24.62;27.92
48718;BME280;34521;33.042;-96.586;2022-07-15T04:56:57;99918.27;;;20.46;33.49
48718;BME280;34521;33.042;-96.586;2022-07-15T04:59:22;99916.97;;;20.47;32.93
48718;BME280;34521;33.042;-96.586;2022-07-15T05:01:47;99918.47;;;21.24;32.06
48718;BME280;34521;33.042;-96.586;2022-07-15T05:04:12;99911.01;;;23.25;30.09
48718;BME280;34521;33.042;-96.586;2022-07-15T05:06:37;99910.72;;;24.23;28.75
48718;BME280;34521;33.042;-96.586;2022-07-15T05:09:02;99910.42;;;24.13;28.37
48718;BME280;34521;33.042;-96.586;2022-07-15T05:11:27;99910.35;;;24.63;27.88
48718;BME280;34521;33.042;-96.586;2022-07-15T05:13:53;99908.10;;;24.99;27.82
48718;BME280;34521;33.042;-96.586;2022-07-15T05:16:18;99917.21;;;21.62;31.82
48718;BME280;34521;33.042;-96.586;2022-07-15T05:18:42;99915.67;;;20.53;32.94
48718;BME280;34521;33.042;-96.586;2022-07-15T05:21:08;99912.48;;;21.64;31.47
48718;BME280;34521;33.042;-96.586;2022-07-15T05:23:33;99908.15;;;22.93;30.58
48718;BME280;34521;33.042;-96.586;2022-07-15T05:25:58;99907.17;;;24.04;28.90
48718;BME280;34521;33.042;-96.586;2022-07-15T05:28:23;99903.70;;;24.05;28.41
48718;BME280;34521;33.042;-96.586;2022-07-15T05:30:48;99901.74;;;24.50;28.24
48718;BME280;34521;33.042;-96.586;2022-07-15T05:33:16;99902.28;;;24.29;28.25
48718;BME280;34521;33.042;-96.586;2022-07-15T05:35:38;99902.58;;;24.44;28.14
48718;BME280;34521;33.042;-96.586;2022-07-15T05:38:03;99908.74;;;19.96;33.37
48718;BME280;34521;33.042;-96.586;2022-07-15T05:40:28;99907.99;;;20.40;33.43
48718;BME280;34521;33.042;-96.586;2022-07-15T05:42:53;99912.32;;;20.73;32.76
48718;BME280;34521;33.042;-96.586;2022-07-15T05:45:19;99908.82;;;23.07;30.26
48718;BME280;34521;33.042;-96.586;2022-07-15T05:47:48;99905.48;;;23.33;29.34
48718;BME280;34521;33.042;-96.586;2022-07-15T05:50:09;99903.90;;;24.42;28.23
48718;BME280;34521;33.042;-96.586;2022-07-15T05:52:34;99906.17;;;23.84;28.38
48718;BME280;34521;33.042;-96.586;2022-07-15T05:54:59;99909.57;;;24.61;28.13
48718;BME280;34521;33.042;-96.586;2022-07-15T05:57:24;99910.27;;;24.08;28.21
48718;BME280;34521;33.042;-96.586;2022-07-15T05:59:49;99918.64;;;20.26;33.59
48718;BME280;34521;33.042;-96.586;2022-07-15T06:02:14;99919.93;;;20.27;33.27
48718;BME280;34521;33.042;-96.586;2022-07-15T06:04:39;99923.18;;;20.82;32.82
48718;BME280;34521;33.042;-96.586;2022-07-15T06:07:04;99918.90;;;23.07;30.14
48718;BME280;34521;33.042;-96.586;2022-07-15T06:09:30;99918.91;;;23.82;28.77
48718;BME280;34521;33.042;-96.586;2022-07-15T06:11:54;99923.33;;;24.29;28.30
48718;BME280;34521;33.042;-96.586;2022-07-15T06:14:19;99927.09;;;24.23;28.15
48718;BME280;34521;33.042;-96.586;2022-07-15T06:16:44;99926.72;;;24.70;27.75
48718;BME280;34521;33.042;-96.586;2022-07-15T06:19:09;99925.64;;;24.31;28.17
48718;BME280;34521;33.042;-96.586;2022-07-15T06:21:34;99932.50;;;20.54;32.82
48718;BME280;34521;33.042;-96.586;2022-07-15T06:23:59;99934.65;;;20.22;33.62
48718;BME280;34521;33.042;-96.586;2022-07-15T06:26:24;99937.88;;;21.34;31.55
48718;BME280;34521;33.042;-96.586;2022-07-15T06:28:50;99930.21;;;22.31;30.73
48718;BME280;34521;33.042;-96.586;2022-07-15T06:31:15;99934.60;;;23.63;28.92
48718;BME280;34521;33.042;-96.586;2022-07-15T06:33:40;99936.20;;;24.17;28.34
48718;BME280;34521;33.042;-96.586;2022-07-15T06:36:05;99936.60;;;24.67;27.89
48718;BME280;34521;33.042;-96.586;2022-07-15T06:38:31;99943.24;;;24.42;27.93
48718;BME280;34521;33.042;-96.586;2022-07-15T06:40:55;99946.44;;;24.46;27.94
48718;BME280;34521;33.042;-96.586;2022-07-15T06:43:20;99947.03;;;24.18;28.42
48718;BME280;34521;33.042;-96.586;2022-07-15T06:45:45;99945.93;;;20.03;33.85
48718;BME280;34521;33.042;-96.586;2022-07-15T06:48:10;99948.94;;;21.10;32.18
48718;BME280;34521;33.042;-96.586;2022-07-15T06:50:35;99947.57;;;20.91;32.59
48718;BME280;34521;33.042;-96.586;2022-07-15T06:53:01;99927.77;;;23.05;29.99
48718;BME280;34521;33.042;-96.586;2022-07-15T06:55:25;99921.13;;;23.71;28.76
48718;BME280;34521;33.042;-96.586;2022-07-15T06:57:51;99920.18;;;24.06;28.45
48718;BME280;34521;33.042;-96.586;2022-07-15T07:00:16;99923.42;;;24.21;28.10
48718;BME280;34521;33.042;-96.586;2022-07-15T07:02:41;99924.29;;;24.36;27.97
48718;BME280;34521;33.042;-96.586;2022-07-15T07:05:07;99924.34;;;24.57;27.77
48718;BME280;34521;33.042;-96.586;2022-07-15T07:07:31;99932.99;;;21.45;31.25
48718;BME280;34521;33.042;-96.586;2022-07-15T07:09:56;99933.04;;;19.52;34.11
48718;BME280;34521;33.042;-96.586;2022-07-15T07:12:21;99933.97;;;19.50;33.89
48718;BME280;34521;33.042;-96.586;2022-07-15T07:14:46;99937.69;;;21.62;32.37
48718;BME280;34521;33.042;-96.586;2022-07-15T07:17:11;99929.79;;;23.10;29.77
48718;BME280;34521;33.042;-96.586;2022-07-15T07:19:36;99935.67;;;23.73;28.79
48718;BME280;34521;33.042;-96.586;2022-07-15T07:22:01;99939.21;;;23.88;28.61
48718;BME280;34521;33.042;-96.586;2022-07-15T07:24:26;99936.11;;;23.90;28.16
48718;BME280;34521;33.042;-96.586;2022-07-15T07:26:52;99937.32;;;24.71;27.61
48718;BME280;34521;33.042;-96.586;2022-07-15T07:29:17;99934.45;;;24.46;27.63
48718;BME280;34521;33.042;-96.586;2022-07-15T07:31:42;99930.30;;;24.21;28.17
48718;BME280;34521;33.042;-96.586;2022-07-15T07:34:07;99932.93;;;19.69;33.97
48718;BME280;34521;33.042;-96.586;2022-07-15T07:36:32;99935.61;;;20.10;33.43
48718;BME280;34521;33.042;-96.586;2022-07-15T07:38:57;99940.64;;;20.96;33.19
48718;BME280;34521;33.042;-96.586;2022-07-15T07:41:22;99937.08;;;23.00;30.13
48718;BME280;34521;33.042;-96.586;2022-07-15T07:43:47;99929.80;;;23.81;28.73
48718;BME280;34521;33.042;-96.586;2022-07-15T07:46:14;99931.00;;;24.12;28.33
48718;BME280;34521;33.042;-96.586;2022-07-15T07:48:38;99926.82;;;24.71;27.78
48718;BME280;34521;33.042;-96.586;2022-07-15T07:51:02;99925.14;;;24.56;27.73
48718;BME280;34521;33.042;-96.586;2022-07-15T07:53:27;99926.79;;;24.01;28.11
48718;BME280;34521;33.042;-96.586;2022-07-15T07:55:52;99924.33;;;24.48;27.87
48718;BME280;34521;33.042;-96.586;2022-07-15T07:58:18;99929.42;;;20.56;32.68
48718;BME280;34521;33.042;-96.586;2022-07-15T08:00:43;99926.91;;;19.40;34.60
48718;BME280;34521;33.042;-96.586;2022-07-15T08:03:07;99927.12;;;20.31;33.78
48718;BME280;34521;33.042;-96.586;2022-07-15T08:05:33;99926.53;;;21.97;31.64
48718;BME280;34521;33.042;-96.586;2022-07-15T08:08:08;99922.98;;;23.11;29.73
48718;BME280;34521;33.042;-96.586;2022-07-15T08:10:22;99915.36;;;23.40;29.15
48718;BME280;34521;33.042;-96.586;2022-07-15T08:12:48;99920.14;;;23.47;28.83
48718;BME280;34521;33.042;-96.586;2022-07-15T08:15:13;99917.27;;;24.15;28.12
48718;BME280;34521;33.042;-96.586;2022-07-15T08:17:38;99918.91;;;24.17;28.13
48718;BME280;34521;33.042;-96.586;2022-07-15T08:20:03;99914.37;;;24.56;27.76
48718;BME280;34521;33.042;-96.586;2022-07-15T08:22:28;99915.97;;;24.36;28.02
48718;BME280;34521;33.042;-96.586;2022-07-15T08:24:53;99928.55;;;19.46;34.25
48718;BME280;34521;33.042;-96.586;2022-07-15T08:27:18;99928.62;;;19.26;34.52
48718;BME280;34521;33.042;-96.586;2022-07-15T08:29:44;99933.77;;;20.66;33.53
48718;BME280;34521;33.042;-96.586;2022-07-15T08:32:09;99920.54;;;23.02;30.08
48718;BME280;34521;33.042;-96.586;2022-07-15T08:34:33;99923.08;;;23.42;29.05
48718;BME280;34521;33.042;-96.586;2022-07-15T08:36:58;99924.36;;;23.74;28.46
48718;BME280;34521;33.042;-96.586;2022-07-15T08:39:23;99925.86;;;23.70;28.54
48718;BME280;34521;33.042;-96.586;2022-07-15T08:41:50;99920.30;;;24.04;28.27
48718;BME280;34521;33.042;-96.586;2022-07-15T08:44:13;99922.48;;;24.50;28.04
48718;BME280;34521;33.042;-96.586;2022-07-15T08:46:41;99920.18;;;24.35;27.93
48718;BME280;34521;33.042;-96.586;2022-07-15T08:49:07;99932.21;;;21.77;33.10
48718;BME280;34521;33.042;-96.586;2022-07-15T08:51:29;99935.92;;;19.51;35.39
48718;BME280;34521;33.042;-96.586;2022-07-15T08:53:53;99929.06;;;19.58;34.70
48718;BME280;34521;33.042;-96.586;2022-07-15T08:56:19;99928.25;;;20.59;33.84
48718;BME280;34521;33.042;-96.586;2022-07-15T08:58:44;99922.40;;;22.88;30.63
48718;BME280;34521;33.042;-96.586;2022-07-15T09:01:09;99928.89;;;23.18;29.77
48718;BME280;34521;33.042;-96.586;2022-07-15T09:03:34;99930.25;;;24.13;28.70
48718;BME280;34521;33.042;-96.586;2022-07-15T09:05:59;99932.70;;;24.29;28.50
48718;BME280;34521;33.042;-96.586;2022-07-15T09:08:24;99933.72;;;24.07;28.52
48718;BME280;34521;33.042;-96.586;2022-07-15T09:10:51;99938.64;;;24.13;28.43
48718;BME280;34521;33.042;-96.586;2022-07-15T09:13:26;99937.06;;;24.54;27.76
48718;BME280;34521;33.042;-96.586;2022-07-15T09:15:40;99938.11;;;24.60;27.93
48718;BME280;34521;33.042;-96.586;2022-07-15T09:18:06;99947.45;;;21.40;31.39
48718;BME280;34521;33.042;-96.586;2022-07-15T09:20:29;99949.42;;;18.96;35.20
48718;BME280;34521;33.042;-96.586;2022-07-15T09:22:55;99945.42;;;19.81;34.28
48718;BME280;34521;33.042;-96.586;2022-07-15T09:25:21;99945.97;;;21.99;31.99
48718;BME280;34521;33.042;-96.586;2022-07-15T09:27:45;99937.23;;;22.87;30.08
48718;BME280;34521;33.042;-96.586;2022-07-15T09:30:15;99936.83;;;24.27;28.84
48718;BME280;34521;33.042;-96.586;2022-07-15T09:32:34;99937.31;;;23.88;28.65
48718;BME280;34521;33.042;-96.586;2022-07-15T09:35:01;99941.67;;;24.08;28.45
48718;BME280;34521;33.042;-96.586;2022-07-15T09:37:24;99942.36;;;23.86;28.49
48718;BME280;34521;33.042;-96.586;2022-07-15T09:39:55;99939.93;;;23.98;28.16
48718;BME280;34521;33.042;-96.586;2022-07-15T09:42:16;99934.54;;;24.39;27.96
48718;BME280;34521;33.042;-96.586;2022-07-15T09:44:40;99936.36;;;23.96;28.18
48718;BME280;34521;33.042;-96.586;2022-07-15T09:47:08;99944.93;;;20.63;32.57
48718;BME280;34521;33.042;-96.586;2022-07-15T09:49:34;99948.21;;;18.96;35.17
48718;BME280;34521;33.042;-96.586;2022-07-15T09:52:00;99944.13;;;19.39;34.88
48718;BME280;34521;33.042;-96.586;2022-07-15T09:54:20;99945.85;;;21.85;31.75
48718;BME280;34521;33.042;-96.586;2022-07-15T09:56:46;99944.00;;;23.01;30.11
48718;BME280;34521;33.042;-96.586;2022-07-15T09:59:10;99944.79;;;23.65;28.87
48718;BME280;34521;33.042;-96.586;2022-07-15T10:01:36;99945.88;;;23.90;28.58
48718;BME280;34521;33.042;-96.586;2022-07-15T10:04:01;99947.38;;;23.85;28.60
48718;BME280;34521;33.042;-96.586;2022-07-15T10:06:27;99944.60;;;23.83;28.42
48718;BME280;34521;33.042;-96.586;2022-07-15T10:08:51;99940.86;;;24.44;27.84
48718;BME280;34521;33.042;-96.586;2022-07-15T10:11:17;99942.73;;;23.86;28.15
48718;BME280;34521;33.042;-96.586;2022-07-15T10:16:17;99947.22;;;19.85;33.61
48718;BME280;34521;33.042;-96.586;2022-07-15T10:18:43;99951.53;;;18.90;35.53
48718;BME280;34521;33.042;-96.586;2022-07-15T10:21:03;99944.43;;;20.30;33.82
48718;BME280;34521;33.042;-96.586;2022-07-15T10:23:33;99939.67;;;22.10;31.58
48718;BME280;34521;33.042;-96.586;2022-07-15T10:25:55;99936.09;;;23.06;29.68
48718;BME280;34521;33.042;-96.586;2022-07-15T10:28:13;99932.43;;;23.72;28.93
48718;BME280;34521;33.042;-96.586;2022-07-15T10:30:36;99932.69;;;23.55;28.54
48718;BME280;34521;33.042;-96.586;2022-07-15T10:33:09;99935.45;;;24.14;28.16
48718;BME280;34521;33.042;-96.586;2022-07-15T10:35:35;99934.94;;;24.36;27.97
48718;BME280;34521;33.042;-96.586;2022-07-15T10:40:16;99933.69;;;24.54;27.86
48718;BME280;34521;33.042;-96.586;2022-07-15T10:45:08;99942.48;;;21.84;30.41
48718;BME280;34521;33.042;-96.586;2022-07-15T10:47:32;99951.02;;;19.02;34.69
48718;BME280;34521;33.042;-96.586;2022-07-15T10:49:56;99951.51;;;19.30;34.78
48718;BME280;34521;33.042;-96.586;2022-07-15T10:52:24;99946.75;;;22.30;31.39
48718;BME280;34521;33.042;-96.586;2022-07-15T10:54:48;99940.74;;;22.65;30.31
48718;BME280;34521;33.042;-96.586;2022-07-15T10:57:12;99940.01;;;23.17;29.22
48718;BME280;34521;33.042;-96.586;2022-07-15T10:59:38;99939.72;;;23.77;28.51
48718;BME280;34521;33.042;-96.586;2022-07-15T11:02:13;99941.95;;;24.15;28.19
48718;BME280;34521;33.042;-96.586;2022-07-15T11:04:28;99938.46;;;24.37;27.95
48718;BME280;34521;33.042;-96.586;2022-07-15T11:11:48;99940.34;;;24.17;28.01
48718;BME280;34521;33.042;-96.586;2022-07-15T11:16:34;99949.85;;;18.76;35.52
48718;BME280;34521;33.042;-96.586;2022-07-15T11:18:57;99953.90;;;19.14;34.71
48718;BME280;34521;33.042;-96.586;2022-07-15T11:21:24;99954.64;;;21.59;31.76
48718;BME280;34521;33.042;-96.586;2022-07-15T11:23:49;99947.78;;;23.19;29.89
48718;BME280;34521;33.042;-96.586;2022-07-15T11:26:12;99949.95;;;23.32;29.26
48718;BME280;34521;33.042;-96.586;2022-07-15T11:28:37;99947.27;;;23.63;28.92
48718;BME280;34521;33.042;-96.586;2022-07-15T11:31:02;99946.18;;;23.76;28.58
48718;BME280;34521;33.042;-96.586;2022-07-15T11:33:27;99948.90;;;23.72;28.44
48718;BME280;34521;33.042;-96.586;2022-07-15T11:35:54;99952.30;;;23.99;28.15
48718;BME280;34521;33.042;-96.586;2022-07-15T11:38:19;99952.62;;;24.58;27.86
48718;BME280;34521;33.042;-96.586;2022-07-15T11:40:46;99951.82;;;24.71;27.73
48718;BME280;34521;33.042;-96.586;2022-07-15T11:43:13;99962.99;;;20.60;35.20
48718;BME280;34521;33.042;-96.586;2022-07-15T11:45:35;99962.32;;;19.57;38.67
48718;BME280;34521;33.042;-96.586;2022-07-15T11:47:57;99963.08;;;19.84;38.65
48718;BME280;34521;33.042;-96.586;2022-07-15T11:50:22;99962.39;;;18.85;38.81
48718;BME280;34521;33.042;-96.586;2022-07-15T11:52:48;99962.91;;;19.53;38.62
48718;BME280;34521;33.042;-96.586;2022-07-15T11:55:13;99962.73;;;21.92;33.88
48718;BME280;34521;33.042;-96.586;2022-07-15T11:57:38;99955.81;;;22.83;32.21
48718;BME280;34521;33.042;-96.586;2022-07-15T12:00:04;99960.99;;;23.61;31.11
48718;BME280;34521;33.042;-96.586;2022-07-15T12:02:29;99958.09;;;23.61;30.46
48718;BME280;34521;33.042;-96.586;2022-07-15T12:05:02;99953.98;;;23.78;30.19
48718;BME280;34521;33.042;-96.586;2022-07-15T12:07:18;99951.92;;;24.14;29.68
48718;BME280;34521;33.042;-96.586;2022-07-15T12:09:46;99950.44;;;23.75;30.10
48718;BME280;34521;33.042;-96.586;2022-07-15T12:12:09;99954.69;;;24.23;29.45
48718;BME280;34521;33.042;-96.586;2022-07-15T12:14:33;99959.87;;;24.04;29.42
48718;BME280;34521;33.042;-96.586;2022-07-15T12:16:58;99964.24;;;20.44;33.71
48718;BME280;34521;33.042;-96.586;2022-07-15T12:19:26;99966.48;;;18.71;36.86
48718;BME280;34521;33.042;-96.586;2022-07-15T12:21:50;99969.32;;;18.74;37.58
48718;BME280;34521;33.042;-96.586;2022-07-15T12:24:15;99968.37;;;21.23;33.73
48718;BME280;34521;33.042;-96.586;2022-07-15T12:26:40;99972.09;;;22.57;31.47
48718;BME280;34521;33.042;-96.586;2022-07-15T12:29:04;99972.24;;;23.59;30.28
48718;BME280;34521;33.042;-96.586;2022-07-15T12:31:31;99972.24;;;23.54;30.01
48718;BME280;34521;33.042;-96.586;2022-07-15T12:33:54;99976.64;;;23.95;29.28
48718;BME280;34521;33.042;-96.586;2022-07-15T12:36:21;99978.97;;;23.64;29.63
48718;BME280;34521;33.042;-96.586;2022-07-15T12:38:44;99979.86;;;24.07;29.14
48718;BME280;34521;33.042;-96.586;2022-07-15T12:41:23;99981.98;;;24.03;28.91
48718;BME280;34521;33.042;-96.586;2022-07-15T12:43:48;99988.09;;;20.89;32.99